sensor_id;sensor_type;location;lat;lon;timestamp;temperature;humidity
7540;DHT22;3811;49.006;12.076;2022-10-23T00:04:20;11.40;99.90
7540;DHT22;3811;49.006;12.076;2022-10-23T00:06:47;11.40;99.90
7540;DHT22;3811;49.006;12.076;2022-10-23T00:09:18;11.40;99.90
7540;DHT22;3811;49.006;12.076;2022-10-23T00:11:46;11.40;99.90
7540;DHT22;3811;49.006;12.076;2022-10-23T00:14:16;11.40;99.90
7540;DHT22;3811;49.006;12.076;2022-10-23T00:21:37;11.40;99.90
7540;DHT22;3811;49.006;12.076;2022-10-23T00:24:06;11.40;99.90
7540;DHT22;3811;49.006;12.076;2022-10-23T00:26:34;11.30;99.90
7540;DHT22;3811;49.006;12.076;2022-10-23T00:29:04;11.30;99.90
7540;DHT22;3811;49.006;12.076;2022-10-23T00:31:31;11.30;99.90
7540;DHT22;3811;49.006;12.076;2022-10-23T00:33:59;11.20;99.90
7540;DHT22;3811;49.006;12.076;2022-10-23T00:36:26;11.20;99.90
7540;DHT22;3811;49.006;12.076;2022-10-23T00:38:53;11.20;99.90
7540;DHT22;3811;49.006;12.076;2022-10-23T00:41:24;11.20;99.90
7540;DHT22;3811;49.006;12.076;2022-10-23T00:44:07;11.20;99.90
7540;DHT22;3811;49.006;12.076;2022-10-23T00:46:35;11.20;99.90
7540;DHT22;3811;49.006;12.076;2022-10-23T00:49:05;11.10;99.90
7540;DHT22;3811;49.006;12.076;2022-10-23T00:51:35;11.10;99.90
7540;DHT22;3811;49.006;12.076;2022-10-23T00:54:04;11.10;99.90
7540;DHT22;3811;49.006;12.076;2022-10-23T00:56:32;11.10;99.90
7540;DHT22;3811;49.006;12.076;2022-10-23T01:01:29;11.10;99.90
7540;DHT22;3811;49.006;12.076;2022-10-23T01:03:57;11.10;99.90
7540;DHT22;3811;49.006;12.076;2022-10-23T01:06:31;11.10;99.90
7540;DHT22;3811;49.006;12.076;2022-10-23T01:09:04;11.10;99.90
7540;DHT22;3811;49.006;12.076;2022-10-23T01:11:38;11.10;99.90
7540;DHT22;3811;49.006;12.076;2022-10-23T01:14:13;11.10;99.90
7540;DHT22;3811;49.006;12.076;2022-10-23T01:16:46;11.10;99.90
7540;DHT22;3811;49.006;12.076;2022-10-23T01:19:19;11.10;99.90
7540;DHT22;3811;49.006;12.076;2022-10-23T01:21:54;11.10;99.90
7540;DHT22;3811;49.006;12.076;2022-10-23T01:24:33;11.00;99.90
7540;DHT22;3811;49.006;12.076;2022-10-23T01:27:19;11.10;99.90
7540;DHT22;3811;49.006;12.076;2022-10-23T01:29:54;11.00;99.90
7540;DHT22;3811;49.006;12.076;2022-10-23T01:32:36;11.00;99.90
7540;DHT22;3811;49.006;12.076;2022-10-23T01:35:10;11.10;99.90
7540;DHT22;3811;49.006;12.076;2022-10-23T01:37:41;11.10;99.90
7540;DHT22;3811;49.006;12.076;2022-10-23T01:40:14;11.10;99.90
7540;DHT22;3811;49.006;12.076;2022-10-23T01:42:48;11.00;99.90
7540;DHT22;3811;49.006;12.076;2022-10-23T01:45:26;11.00;99.90
7540;DHT22;3811;49.006;12.076;2022-10-23T01:47:55;11.10;99.90
7540;DHT22;3811;49.006;12.076;2022-10-23T01:50:25;11.10;99.90
7540;DHT22;3811;49.006;12.076;2022-10-23T01:52:59;11.10;99.90
7540;DHT22;3811;49.006;12.076;2022-10-23T01:55:27;11.10;99.90
7540;DHT22;3811;49.006;12.076;2022-10-23T01:57:59;11.10;99.90
7540;DHT22;3811;49.006;12.076;2022-10-23T02:00:35;11.10;99.90
7540;DHT22;3811;49.006;12.076;2022-10-23T02:03:05;11.00;99.90
7540;DHT22;3811;49.006;12.076;2022-10-23T02:08:03;11.10;99.90
7540;DHT22;3811;49.006;12.076;2022-10-23T02:10:35;11.10;99.90
7540;DHT22;3811;49.006;12.076;2022-10-23T02:13:11;11.10;99.90
7540;DHT22;3811;49.006;12.076;2022-10-23T02:15:45;11.10;99.90
7540;DHT22;3811;49.006;12.076;2022-10-23T02:18:22;11.10;99.90
7540;DHT22;3811;49.006;12.076;2022-10-23T02:20:55;11.20;99.90
7540;DHT22;3811;49.006;12.076;2022-10-23T02:23:29;11.10;99.90
7540;DHT22;3811;49.006;12.076;2022-10-23T02:26:01;11.20;99.90
7540;DHT22;3811;49.006;12.076;2022-10-23T02:28:44;11.20;99.90
7540;DHT22;3811;49.006;12.076;2022-10-23T02:31:13;11.20;99.90
7540;DHT22;3811;49.006;12.076;2022-10-23T02:33:47;11.10;99.90
7540;DHT22;3811;49.006;12.076;2022-10-23T02:36:16;11.20;99.90
7540;DHT22;3811;49.006;12.076;2022-10-23T02:38:44;11.20;99.90
7540;DHT22;3811;49.006;12.076;2022-10-23T02:41:18;11.20;99.90
7540;DHT22;3811;49.006;12.076;2022-10-23T02:44:07;11.10;99.90
7540;DHT22;3811;49.006;12.076;2022-10-23T02:46:46;11.10;99.90
7540;DHT22;3811;49.006;12.076;2022-10-23T02:49:19;11.10;99.90
7540;DHT22;3811;49.006;12.076;2022-10-23T02:51:59;11.00;99.90
7540;DHT22;3811;49.006;12.076;2022-10-23T02:54:43;11.00;99.90
7540;DHT22;3811;49.006;12.076;2022-10-23T02:57:22;11.00;99.90
7540;DHT22;3811;49.006;12.076;2022-10-23T03:00:02;10.90;99.90
7540;DHT22;3811;49.006;12.076;2022-10-23T03:02:34;10.80;99.90
7540;DHT22;3811;49.006;12.076;2022-10-23T03:05:07;10.80;99.90
7540;DHT22;3811;49.006;12.076;2022-10-23T03:07:35;10.80;99.90
7540;DHT22;3811;49.006;12.076;2022-10-23T03:10:06;10.80;99.90
7540;DHT22;3811;49.006;12.076;2022-10-23T03:12:33;10.80;99.90
7540;DHT22;3811;49.006;12.076;2022-10-23T03:15:04;10.80;99.90
7540;DHT22;3811;49.006;12.076;2022-10-23T03:19:59;10.80;99.90
7540;DHT22;3811;49.006;12.076;2022-10-23T03:22:26;10.80;99.90
7540;DHT22;3811;49.006;12.076;2022-10-23T03:32:17;10.80;99.90
7540;DHT22;3811;49.006;12.076;2022-10-23T03:34:44;10.80;99.90
7540;DHT22;3811;49.006;12.076;2022-10-23T03:39:39;10.90;99.90
7540;DHT22;3811;49.006;12.076;2022-10-23T03:42:06;10.80;99.90
7540;DHT22;3811;49.006;12.076;2022-10-23T03:44:33;10.80;99.90
7540;DHT22;3811;49.006;12.076;2022-10-23T03:47:00;10.80;99.90
7540;DHT22;3811;49.006;12.076;2022-10-23T03:49:29;10.70;99.90
7540;DHT22;3811;49.006;12.076;2022-10-23T03:52:01;10.70;99.90
7540;DHT22;3811;49.006;12.076;2022-10-23T03:54:32;10.70;99.90
7540;DHT22;3811;49.006;12.076;2022-10-23T03:56:59;10.60;99.90
7540;DHT22;3811;49.006;12.076;2022-10-23T03:59:26;10.60;99.90
7540;DHT22;3811;49.006;12.076;2022-10-23T04:01:54;10.60;99.90
7540;DHT22;3811;49.006;12.076;2022-10-23T04:04:23;10.60;99.90
7540;DHT22;3811;49.006;12.076;2022-10-23T04:06:51;10.60;99.90
7540;DHT22;3811;49.006;12.076;2022-10-23T04:09:19;10.60;99.90
7540;DHT22;3811;49.006;12.076;2022-10-23T04:14:13;10.50;99.90
7540;DHT22;3811;49.006;12.076;2022-10-23T04:21:36;10.40;99.90
7540;DHT22;3811;49.006;12.076;2022-10-23T04:24:05;10.40;99.90
7540;DHT22;3811;49.006;12.076;2022-10-23T04:28:59;10.40;99.90
7540;DHT22;3811;49.006;12.076;2022-10-23T04:31:28;10.30;99.90
7540;DHT22;3811;49.006;12.076;2022-10-23T04:36:28;10.20;99.90
7540;DHT22;3811;49.006;12.076;2022-10-23T04:39:00;10.20;99.90
7540;DHT22;3811;49.006;12.076;2022-10-23T04:46:23;10.10;99.90
7540;DHT22;3811;49.006;12.076;2022-10-23T04:48:50;10.20;99.90
7540;DHT22;3811;49.006;12.076;2022-10-23T04:54:01;10.20;99.90
7540;DHT22;3811;49.006;12.076;2022-10-23T04:56:41;10.10;99.90
7540;DHT22;3811;49.006;12.076;2022-10-23T05:01:41;10.10;99.90
7540;DHT22;3811;49.006;12.076;2022-10-23T05:04:08;10.20;99.90
7540;DHT22;3811;49.006;12.076;2022-10-23T05:09:41;10.10;99.90
7540;DHT22;3811;49.006;12.076;2022-10-23T05:12:42;10.10;99.90
7540;DHT22;3811;49.006;12.076;2022-10-23T05:15:09;10.10;99.90
7540;DHT22;3811;49.006;12.076;2022-10-23T05:17:38;10.10;99.90
7540;DHT22;3811;49.006;12.076;2022-10-23T05:20:10;10.10;99.90
7540;DHT22;3811;49.006;12.076;2022-10-23T05:22:40;10.10;99.90
7540;DHT22;3811;49.006;12.076;2022-10-23T05:25:10;10.20;99.90
7540;DHT22;3811;49.006;12.076;2022-10-23T05:27:39;10.20;99.90
7540;DHT22;3811;49.006;12.076;2022-10-23T05:32:39;10.20;99.90
7540;DHT22;3811;49.006;12.076;2022-10-23T05:35:10;10.20;99.90
7540;DHT22;3811;49.006;12.076;2022-10-23T05:37:41;10.20;99.90
7540;DHT22;3811;49.006;12.076;2022-10-23T05:40:17;10.20;99.90
7540;DHT22;3811;49.006;12.076;2022-10-23T05:45:20;10.30;99.90
7540;DHT22;3811;49.006;12.076;2022-10-23T05:48:05;10.30;99.90
7540;DHT22;3811;49.006;12.076;2022-10-23T05:51:01;10.30;99.90
7540;DHT22;3811;49.006;12.076;2022-10-23T05:53:54;10.40;99.90
7540;DHT22;3811;49.006;12.076;2022-10-23T05:56:30;10.40;99.90
7540;DHT22;3811;49.006;12.076;2022-10-23T05:59:01;10.50;99.90
7540;DHT22;3811;49.006;12.076;2022-10-23T06:02:02;10.50;99.90
7540;DHT22;3811;49.006;12.076;2022-10-23T06:07:22;10.60;99.90
7540;DHT22;3811;49.006;12.076;2022-10-23T06:14:46;10.80;99.90
7540;DHT22;3811;49.006;12.076;2022-10-23T06:19:44;10.60;99.90
7540;DHT22;3811;49.006;12.076;2022-10-23T06:22:14;10.60;99.90
7540;DHT22;3811;49.006;12.076;2022-10-23T06:24:48;10.60;99.90
7540;DHT22;3811;49.006;12.076;2022-10-23T06:27:21;10.60;99.90
7540;DHT22;3811;49.006;12.076;2022-10-23T06:32:17;10.50;99.90
7540;DHT22;3811;49.006;12.076;2022-10-23T06:34:56;10.60;99.90
7540;DHT22;3811;49.006;12.076;2022-10-23T06:40:04;10.50;99.90
7540;DHT22;3811;49.006;12.076;2022-10-23T06:45:41;10.60;99.90
7540;DHT22;3811;49.006;12.076;2022-10-23T06:48:13;11.00;99.90
7540;DHT22;3811;49.006;12.076;2022-10-23T06:51:04;10.60;99.90
7540;DHT22;3811;49.006;12.076;2022-10-23T06:53:38;10.60;99.90
7540;DHT22;3811;49.006;12.076;2022-10-23T06:56:34;10.60;99.90
7540;DHT22;3811;49.006;12.076;2022-10-23T06:59:05;10.70;99.90
7540;DHT22;3811;49.006;12.076;2022-10-23T07:01:39;10.60;99.90
7540;DHT22;3811;49.006;12.076;2022-10-23T07:04:08;10.50;99.90
7540;DHT22;3811;49.006;12.076;2022-10-23T07:06:39;10.50;99.90
7540;DHT22;3811;49.006;12.076;2022-10-23T07:09:07;10.60;99.90
7540;DHT22;3811;49.006;12.076;2022-10-23T07:12:04;10.50;99.90
7540;DHT22;3811;49.006;12.076;2022-10-23T07:14:41;10.50;99.90
7540;DHT22;3811;49.006;12.076;2022-10-23T07:17:08;10.60;99.90
7540;DHT22;3811;49.006;12.076;2022-10-23T07:19:37;10.60;99.90
7540;DHT22;3811;49.006;12.076;2022-10-23T07:22:11;10.70;99.90
7540;DHT22;3811;49.006;12.076;2022-10-23T07:27:47;10.70;99.90
7540;DHT22;3811;49.006;12.076;2022-10-23T07:30:16;10.70;99.90
7540;DHT22;3811;49.006;12.076;2022-10-23T07:32:48;10.70;99.90
7540;DHT22;3811;49.006;12.076;2022-10-23T07:35:39;10.70;99.90
7540;DHT22;3811;49.006;12.076;2022-10-23T07:38:15;10.80;99.90
7540;DHT22;3811;49.006;12.076;2022-10-23T07:51:00;10.60;99.90
7540;DHT22;3811;49.006;12.076;2022-10-23T07:56:13;10.70;99.90
7540;DHT22;3811;49.006;12.076;2022-10-23T08:04:23;10.50;99.90
7540;DHT22;3811;49.006;12.076;2022-10-23T08:06:57;10.60;99.90
7540;DHT22;3811;49.006;12.076;2022-10-23T08:22:07;10.70;99.90
7540;DHT22;3811;49.006;12.076;2022-10-23T08:24:34;10.70;99.90
7540;DHT22;3811;49.006;12.076;2022-10-23T08:27:01;10.70;99.90
7540;DHT22;3811;49.006;12.076;2022-10-23T08:29:30;10.70;99.90
7540;DHT22;3811;49.006;12.076;2022-10-23T08:31:56;10.70;99.90
7540;DHT22;3811;49.006;12.076;2022-10-23T08:42:20;10.80;99.90
7540;DHT22;3811;49.006;12.076;2022-10-23T08:44:54;10.80;99.90
7540;DHT22;3811;49.006;12.076;2022-10-23T08:47:48;10.90;99.90
7540;DHT22;3811;49.006;12.076;2022-10-23T08:50:24;10.90;99.90
7540;DHT22;3811;49.006;12.076;2022-10-23T08:52:54;11.00;99.90
7540;DHT22;3811;49.006;12.076;2022-10-23T08:55:29;11.10;99.90
7540;DHT22;3811;49.006;12.076;2022-10-23T08:58:00;11.10;99.90
7540;DHT22;3811;49.006;12.076;2022-10-23T09:00:29;11.10;99.90
7540;DHT22;3811;49.006;12.076;2022-10-23T09:03:00;11.10;99.90
7540;DHT22;3811;49.006;12.076;2022-10-23T09:05:30;11.10;99.90
7540;DHT22;3811;49.006;12.076;2022-10-23T09:08:13;11.20;99.90
7540;DHT22;3811;49.006;12.076;2022-10-23T09:11:03;11.20;99.90
7540;DHT22;3811;49.006;12.076;2022-10-23T09:19:23;11.40;99.90
7540;DHT22;3811;49.006;12.076;2022-10-23T09:21:52;11.40;99.90
7540;DHT22;3811;49.006;12.076;2022-10-23T09:24:22;11.50;99.90
7540;DHT22;3811;49.006;12.076;2022-10-23T09:26:52;11.50;99.90
7540;DHT22;3811;49.006;12.076;2022-10-23T09:29:26;11.50;99.90
7540;DHT22;3811;49.006;12.076;2022-10-23T09:31:54;11.50;99.90
7540;DHT22;3811;49.006;12.076;2022-10-23T09:34:26;11.60;99.90
7540;DHT22;3811;49.006;12.076;2022-10-23T09:36:55;11.70;99.90
7540;DHT22;3811;49.006;12.076;2022-10-23T09:39:28;11.60;99.90
7540;DHT22;3811;49.006;12.076;2022-10-23T09:41:58;11.60;99.90
7540;DHT22;3811;49.006;12.076;2022-10-23T09:44:29;10.20;99.90
7540;DHT22;3811;49.006;12.076;2022-10-23T09:46:59;11.70;99.90
7540;DHT22;3811;49.006;12.076;2022-10-23T09:49:34;11.80;99.90
7540;DHT22;3811;49.006;12.076;2022-10-23T09:52:03;13.10;99.90
7540;DHT22;3811;49.006;12.076;2022-10-23T09:54:33;11.80;99.90
7540;DHT22;3811;49.006;12.076;2022-10-23T09:57:12;11.90;99.90
7540;DHT22;3811;49.006;12.076;2022-10-23T10:02:19;12.00;99.90
7540;DHT22;3811;49.006;12.076;2022-10-23T10:05:27;12.00;99.90
7540;DHT22;3811;49.006;12.076;2022-10-23T10:08:04;12.20;99.90
7540;DHT22;3811;49.006;12.076;2022-10-23T10:10:36;12.30;99.90
7540;DHT22;3811;49.006;12.076;2022-10-23T10:13:13;12.40;99.90
7540;DHT22;3811;49.006;12.076;2022-10-23T10:15:52;16.10;99.90
7540;DHT22;3811;49.006;12.076;2022-10-23T10:18:27;12.40;99.90
7540;DHT22;3811;49.006;12.076;2022-10-23T10:21:07;12.50;99.90
7540;DHT22;3811;49.006;12.076;2022-10-23T10:23:45;12.70;99.90
7540;DHT22;3811;49.006;12.076;2022-10-23T10:26:22;12.80;99.90
7540;DHT22;3811;49.006;12.076;2022-10-23T10:29:18;13.00;99.90
7540;DHT22;3811;49.006;12.076;2022-10-23T10:31:59;13.10;99.90
7540;DHT22;3811;49.006;12.076;2022-10-23T10:34:38;13.50;99.90
7540;DHT22;3811;49.006;12.076;2022-10-23T10:37:18;13.70;99.90
7540;DHT22;3811;49.006;12.076;2022-10-23T10:39:54;13.60;99.90
7540;DHT22;3811;49.006;12.076;2022-10-23T10:42:40;13.50;99.90
7540;DHT22;3811;49.006;12.076;2022-10-23T10:45:21;13.50;99.90
7540;DHT22;3811;49.006;12.076;2022-10-23T10:48:11;13.80;99.90
7540;DHT22;3811;49.006;12.076;2022-10-23T10:51:06;14.10;99.90
7540;DHT22;3811;49.006;12.076;2022-10-23T10:53:54;14.00;99.90
7540;DHT22;3811;49.006;12.076;2022-10-23T10:56:28;14.00;99.90
7540;DHT22;3811;49.006;12.076;2022-10-23T10:58:58;14.10;99.90
7540;DHT22;3811;49.006;12.076;2022-10-23T11:01:29;14.30;99.90
7540;DHT22;3811;49.006;12.076;2022-10-23T11:04:03;14.40;99.90
7540;DHT22;3811;49.006;12.076;2022-10-23T11:06:34;14.40;99.90
7540;DHT22;3811;49.006;12.076;2022-10-23T11:09:13;14.20;99.90
7540;DHT22;3811;49.006;12.076;2022-10-23T11:14:14;14.10;99.90
7540;DHT22;3811;49.006;12.076;2022-10-23T11:16:45;13.90;99.90
7540;DHT22;3811;49.006;12.076;2022-10-23T11:19:19;13.80;99.90
7540;DHT22;3811;49.006;12.076;2022-10-23T11:21:53;13.80;99.90
7540;DHT22;3811;49.006;12.076;2022-10-23T11:24:44;13.90;99.90
7540;DHT22;3811;49.006;12.076;2022-10-23T11:27:27;14.10;99.90
7540;DHT22;3811;49.006;12.076;2022-10-23T11:30:09;14.10;99.90
7540;DHT22;3811;49.006;12.076;2022-10-23T11:33:01;14.30;99.90
7540;DHT22;3811;49.006;12.076;2022-10-23T11:35:42;14.20;99.90
7540;DHT22;3811;49.006;12.076;2022-10-23T11:38:16;14.30;99.90
7540;DHT22;3811;49.006;12.076;2022-10-23T11:40:45;14.40;99.90
7540;DHT22;3811;49.006;12.076;2022-10-23T11:43:25;14.30;99.90
7540;DHT22;3811;49.006;12.076;2022-10-23T11:46:10;14.50;99.90
7540;DHT22;3811;49.006;12.076;2022-10-23T11:48:40;14.80;99.90
7540;DHT22;3811;49.006;12.076;2022-10-23T11:51:26;15.00;99.90
7540;DHT22;3811;49.006;12.076;2022-10-23T11:54:18;15.10;99.90
7540;DHT22;3811;49.006;12.076;2022-10-23T11:57:10;15.40;99.90
7540;DHT22;3811;49.006;12.076;2022-10-23T11:59:50;15.60;99.90
7540;DHT22;3811;49.006;12.076;2022-10-23T12:02:28;15.80;99.90
7540;DHT22;3811;49.006;12.076;2022-10-23T12:05:02;15.90;99.90
7540;DHT22;3811;49.006;12.076;2022-10-23T12:07:32;16.10;99.90
7540;DHT22;3811;49.006;12.076;2022-10-23T12:10:03;16.10;99.90
7540;DHT22;3811;49.006;12.076;2022-10-23T12:12:33;16.00;99.90
7540;DHT22;3811;49.006;12.076;2022-10-23T12:15:15;16.10;99.90
7540;DHT22;3811;49.006;12.076;2022-10-23T12:20:39;16.40;99.90
7540;DHT22;3811;49.006;12.076;2022-10-23T12:23:34;16.90;99.90
7540;DHT22;3811;49.006;12.076;2022-10-23T12:26:19;17.00;99.90
7540;DHT22;3811;49.006;12.076;2022-10-23T12:28:57;16.90;99.90
7540;DHT22;3811;49.006;12.076;2022-10-23T12:31:35;16.70;99.90
7540;DHT22;3811;49.006;12.076;2022-10-23T12:34:16;16.60;99.90
7540;DHT22;3811;49.006;12.076;2022-10-23T12:39:37;17.30;99.90
7540;DHT22;3811;49.006;12.076;2022-10-23T12:42:10;17.70;99.80
7540;DHT22;3811;49.006;12.076;2022-10-23T12:44:40;17.80;99.90
7540;DHT22;3811;49.006;12.076;2022-10-23T12:47:14;17.60;99.90
7540;DHT22;3811;49.006;12.076;2022-10-23T12:49:47;17.50;99.90
7540;DHT22;3811;49.006;12.076;2022-10-23T12:52:18;17.20;99.90
7540;DHT22;3811;49.006;12.076;2022-10-23T12:54:46;17.10;99.90
7540;DHT22;3811;49.006;12.076;2022-10-23T12:57:21;16.90;99.90
7540;DHT22;3811;49.006;12.076;2022-10-23T12:59:49;16.80;99.90
7540;DHT22;3811;49.006;12.076;2022-10-23T13:02:23;17.10;99.90
7540;DHT22;3811;49.006;12.076;2022-10-23T13:04:51;17.50;99.90
7540;DHT22;3811;49.006;12.076;2022-10-23T13:07:24;17.70;99.90
7540;DHT22;3811;49.006;12.076;2022-10-23T13:09:53;17.70;99.90
7540;DHT22;3811;49.006;12.076;2022-10-23T13:12:27;17.60;99.90
7540;DHT22;3811;49.006;12.076;2022-10-23T13:14:57;17.70;99.90
7540;DHT22;3811;49.006;12.076;2022-10-23T13:17:33;17.70;99.90
7540;DHT22;3811;49.006;12.076;2022-10-23T13:20:19;17.40;99.90
7540;DHT22;3811;49.006;12.076;2022-10-23T13:22:48;17.20;99.90
7540;DHT22;3811;49.006;12.076;2022-10-23T13:25:21;17.00;99.90
7540;DHT22;3811;49.006;12.076;2022-10-23T13:30:27;16.80;99.90
7540;DHT22;3811;49.006;12.076;2022-10-23T13:32:54;16.80;99.90
7540;DHT22;3811;49.006;12.076;2022-10-23T13:35:22;16.80;99.90
7540;DHT22;3811;49.006;12.076;2022-10-23T13:37:51;16.70;99.90
7540;DHT22;3811;49.006;12.076;2022-10-23T13:40:23;16.70;99.90
7540;DHT22;3811;49.006;12.076;2022-10-23T13:42:52;16.60;99.90
7540;DHT22;3811;49.006;12.076;2022-10-23T13:45:22;16.60;99.90
7540;DHT22;3811;49.006;12.076;2022-10-23T13:50:17;16.50;99.90
7540;DHT22;3811;49.006;12.076;2022-10-23T13:55:20;16.40;99.90
7540;DHT22;3811;49.006;12.076;2022-10-23T14:00:18;16.40;99.90
7540;DHT22;3811;49.006;12.076;2022-10-23T14:02:45;16.50;99.90
7540;DHT22;3811;49.006;12.076;2022-10-23T14:07:40;16.40;99.90
7540;DHT22;3811;49.006;12.076;2022-10-23T14:10:07;16.50;99.90
7540;DHT22;3811;49.006;12.076;2022-10-23T14:12:39;16.50;99.90
7540;DHT22;3811;49.006;12.076;2022-10-23T14:15:08;16.40;99.90
7540;DHT22;3811;49.006;12.076;2022-10-23T14:20:03;16.30;99.90
7540;DHT22;3811;49.006;12.076;2022-10-23T14:22:30;16.30;99.90
7540;DHT22;3811;49.006;12.076;2022-10-23T14:24:57;16.30;99.90
7540;DHT22;3811;49.006;12.076;2022-10-23T14:27:24;16.20;99.90
7540;DHT22;3811;49.006;12.076;2022-10-23T14:29:53;16.20;99.90
7540;DHT22;3811;49.006;12.076;2022-10-23T14:32:20;16.10;99.90
7540;DHT22;3811;49.006;12.076;2022-10-23T14:34:50;16.10;99.90
7540;DHT22;3811;49.006;12.076;2022-10-23T14:39:45;16.10;99.90
7540;DHT22;3811;49.006;12.076;2022-10-23T14:42:16;16.10;99.90
7540;DHT22;3811;49.006;12.076;2022-10-23T14:47:12;16.00;99.90
7540;DHT22;3811;49.006;12.076;2022-10-23T14:49:39;16.00;99.90
7540;DHT22;3811;49.006;12.076;2022-10-23T14:52:07;15.90;99.90
7540;DHT22;3811;49.006;12.076;2022-10-23T14:59:29;15.80;99.90
7540;DHT22;3811;49.006;12.076;2022-10-23T15:01:56;15.80;99.90
7540;DHT22;3811;49.006;12.076;2022-10-23T15:04:24;15.70;99.90
7540;DHT22;3811;49.006;12.076;2022-10-23T15:24:05;15.40;99.90
7540;DHT22;3811;49.006;12.076;2022-10-23T15:29:00;15.30;99.90
7540;DHT22;3811;49.006;12.076;2022-10-23T15:31:45;15.30;99.90
7540;DHT22;3811;49.006;12.076;2022-10-23T15:34:15;11.40;99.90
7540;DHT22;3811;49.006;12.076;2022-10-23T15:36:44;15.30;99.90
7540;DHT22;3811;49.006;12.076;2022-10-23T15:39:14;15.20;99.90
7540;DHT22;3811;49.006;12.076;2022-10-23T15:44:11;15.20;99.90
7540;DHT22;3811;49.006;12.076;2022-10-23T15:46:38;15.10;99.90
7540;DHT22;3811;49.006;12.076;2022-10-23T15:49:06;15.00;99.90
7540;DHT22;3811;49.006;12.076;2022-10-23T15:54:04;14.90;99.90
7540;DHT22;3811;49.006;12.076;2022-10-23T15:56:31;14.80;99.90
7540;DHT22;3811;49.006;12.076;2022-10-23T15:58:58;14.60;99.90
7540;DHT22;3811;49.006;12.076;2022-10-23T16:01:25;14.60;99.90
7540;DHT22;3811;49.006;12.076;2022-10-23T16:03:52;14.50;99.90
7540;DHT22;3811;49.006;12.076;2022-10-23T16:06:20;14.40;99.90
7540;DHT22;3811;49.006;12.076;2022-10-23T16:08:47;14.30;99.90
7540;DHT22;3811;49.006;12.076;2022-10-23T16:11:18;14.30;99.90
7540;DHT22;3811;49.006;12.076;2022-10-23T16:18:40;14.10;99.90
7540;DHT22;3811;49.006;12.076;2022-10-23T16:21:16;14.00;99.90
7540;DHT22;3811;49.006;12.076;2022-10-23T16:23:43;13.90;99.90
7540;DHT22;3811;49.006;12.076;2022-10-23T16:28:39;13.90;99.90
7540;DHT22;3811;49.006;12.076;2022-10-23T16:31:09;12.10;99.90
7540;DHT22;3811;49.006;12.076;2022-10-23T16:36:04;13.80;99.90
7540;DHT22;3811;49.006;12.076;2022-10-23T16:44:01;13.70;99.90
7540;DHT22;3811;49.006;12.076;2022-10-23T16:49:06;13.60;99.90
7540;DHT22;3811;49.006;12.076;2022-10-23T16:51:34;13.60;99.90
7540;DHT22;3811;49.006;12.076;2022-10-23T16:56:29;13.60;99.90
7540;DHT22;3811;49.006;12.076;2022-10-23T16:58:57;13.60;99.90
7540;DHT22;3811;49.006;12.076;2022-10-23T17:01:27;13.60;99.90
7540;DHT22;3811;49.006;12.076;2022-10-23T17:03:55;13.60;99.90
7540;DHT22;3811;49.006;12.076;2022-10-23T17:06:24;13.60;99.90
7540;DHT22;3811;49.006;12.076;2022-10-23T17:11:21;13.60;99.90
7540;DHT22;3811;49.006;12.076;2022-10-23T17:13:50;13.60;99.90
7540;DHT22;3811;49.006;12.076;2022-10-23T17:21:16;13.70;99.90
7540;DHT22;3811;49.006;12.076;2022-10-23T17:36:12;13.60;99.90
7540;DHT22;3811;49.006;12.076;2022-10-23T17:46:04;13.60;99.90
7540;DHT22;3811;49.006;12.076;2022-10-23T17:53:37;13.70;99.90
7540;DHT22;3811;49.006;12.076;2022-10-23T17:56:07;13.70;99.90
7540;DHT22;3811;49.006;12.076;2022-10-23T18:01:04;14.00;99.90
7540;DHT22;3811;49.006;12.076;2022-10-23T18:06:05;14.00;99.90
7540;DHT22;3811;49.006;12.076;2022-10-23T18:08:42;13.80;99.90
7540;DHT22;3811;49.006;12.076;2022-10-23T18:11:14;13.70;99.90
7540;DHT22;3811;49.006;12.076;2022-10-23T18:18:37;13.60;99.90
7540;DHT22;3811;49.006;12.076;2022-10-23T18:21:06;13.60;99.90
7540;DHT22;3811;49.006;12.076;2022-10-23T18:23:34;13.60;99.90
7540;DHT22;3811;49.006;12.076;2022-10-23T18:26:03;13.60;99.90
7540;DHT22;3811;49.006;12.076;2022-10-23T18:28:31;13.60;99.90
7540;DHT22;3811;49.006;12.076;2022-10-23T18:30:58;13.60;99.90
7540;DHT22;3811;49.006;12.076;2022-10-23T18:40:52;13.80;99.90
7540;DHT22;3811;49.006;12.076;2022-10-23T18:43:21;13.80;99.90
7540;DHT22;3811;49.006;12.076;2022-10-23T18:45:48;13.80;99.90
7540;DHT22;3811;49.006;12.076;2022-10-23T18:53:10;13.80;99.90
7540;DHT22;3811;49.006;12.076;2022-10-23T18:55:44;13.70;99.90
7540;DHT22;3811;49.006;12.076;2022-10-23T19:00:41;13.70;99.90
7540;DHT22;3811;49.006;12.076;2022-10-23T19:03:09;13.70;99.90
7540;DHT22;3811;49.006;12.076;2022-10-23T19:05:39;13.70;99.90
7540;DHT22;3811;49.006;12.076;2022-10-23T19:08:06;13.70;99.90
7540;DHT22;3811;49.006;12.076;2022-10-23T19:13:01;13.60;99.90
7540;DHT22;3811;49.006;12.076;2022-10-23T19:15:28;13.60;99.90
7540;DHT22;3811;49.006;12.076;2022-10-23T19:17:57;13.60;99.90
7540;DHT22;3811;49.006;12.076;2022-10-23T19:22:53;13.60;99.90
7540;DHT22;3811;49.006;12.076;2022-10-23T19:25:24;13.50;99.90
7540;DHT22;3811;49.006;12.076;2022-10-23T19:27:54;13.60;99.90
7540;DHT22;3811;49.006;12.076;2022-10-23T19:35:21;13.50;99.90
7540;DHT22;3811;49.006;12.076;2022-10-23T19:37:48;13.60;99.90
7540;DHT22;3811;49.006;12.076;2022-10-23T19:40:16;13.50;99.90
7540;DHT22;3811;49.006;12.076;2022-10-23T19:45:13;13.50;99.90
7540;DHT22;3811;49.006;12.076;2022-10-23T19:50:08;10.70;99.90
7540;DHT22;3811;49.006;12.076;2022-10-23T19:52:37;13.50;99.90
7540;DHT22;3811;49.006;12.076;2022-10-23T19:55:06;13.40;99.90
7540;DHT22;3811;49.006;12.076;2022-10-23T19:57:35;13.40;99.90
7540;DHT22;3811;49.006;12.076;2022-10-23T20:00:04;13.40;99.90
7540;DHT22;3811;49.006;12.076;2022-10-23T20:05:04;13.40;99.90
7540;DHT22;3811;49.006;12.076;2022-10-23T20:07:32;13.30;99.90
7540;DHT22;3811;49.006;12.076;2022-10-23T20:10:03;13.30;99.90
7540;DHT22;3811;49.006;12.076;2022-10-23T20:12:31;13.30;99.90
7540;DHT22;3811;49.006;12.076;2022-10-23T20:17:26;13.30;99.90
7540;DHT22;3811;49.006;12.076;2022-10-23T20:19:55;13.40;99.90
7540;DHT22;3811;49.006;12.076;2022-10-23T20:24:50;12.40;99.90
7540;DHT22;3811;49.006;12.076;2022-10-23T20:27:18;13.40;99.90
7540;DHT22;3811;49.006;12.076;2022-10-23T20:32:13;13.40;99.90
7540;DHT22;3811;49.006;12.076;2022-10-23T20:39:36;13.50;99.90
7540;DHT22;3811;49.006;12.076;2022-10-23T20:42:04;13.50;99.90
7540;DHT22;3811;49.006;12.076;2022-10-23T20:44:33;13.40;99.90
7540;DHT22;3811;49.006;12.076;2022-10-23T20:47:00;13.50;99.90
7540;DHT22;3811;49.006;12.076;2022-10-23T20:51:55;13.40;99.90
7540;DHT22;3811;49.006;12.076;2022-10-23T20:54:23;13.40;99.90
7540;DHT22;3811;49.006;12.076;2022-10-23T21:01:49;13.30;99.90
7540;DHT22;3811;49.006;12.076;2022-10-23T21:04:19;13.40;99.90
7540;DHT22;3811;49.006;12.076;2022-10-23T21:06:49;13.40;99.90
7540;DHT22;3811;49.006;12.076;2022-10-23T21:16:39;13.40;99.90
7540;DHT22;3811;49.006;12.076;2022-10-23T21:19:12;13.40;99.90
7540;DHT22;3811;49.006;12.076;2022-10-23T21:24:11;13.40;99.90